sensor_id;sensor_type;location;lat;lon;timestamp;P1;durP1;ratioP1;P2;durP2;ratioP2
64063;SDS011;50314;50.618;10.642;2023-06-24T00:00:29;1.77;;;1.45;;
64063;SDS011;50314;50.618;10.642;2023-06-24T00:02:55;1.98;;;1.50;;
64063;SDS011;50314;50.618;10.642;2023-06-24T00:05:21;2.17;;;1.67;;
64063;SDS011;50314;50.618;10.642;2023-06-24T00:07:46;1.88;;;1.35;;
64063;SDS011;50314;50.618;10.642;2023-06-24T00:10:13;1.63;;;1.50;;
64063;SDS011;50314;50.618;10.642;2023-06-24T00:12:39;2.08;;;1.40;;
64063;SDS011;50314;50.618;10.642;2023-06-24T00:15:06;1.80;;;1.40;;
64063;SDS011;50314;50.618;10.642;2023-06-24T00:17:34;1.83;;;1.50;;
64063;SDS011;50314;50.618;10.642;2023-06-24T00:20:00;1.52;;;1.40;;
64063;SDS011;50314;50.618;10.642;2023-06-24T00:22:25;1.58;;;1.48;;
64063;SDS011;50314;50.618;10.642;2023-06-24T00:24:50;1.73;;;1.50;;
64063;SDS011;50314;50.618;10.642;2023-06-24T00:27:16;2.55;;;1.52;;
64063;SDS011;50314;50.618;10.642;2023-06-24T00:29:42;1.63;;;1.50;;
64063;SDS011;50314;50.618;10.642;2023-06-24T00:32:07;1.67;;;1.58;;
64063;SDS011;50314;50.618;10.642;2023-06-24T00:34:33;1.60;;;1.30;;
64063;SDS011;50314;50.618;10.642;2023-06-24T00:36:59;1.92;;;1.50;;
64063;SDS011;50314;50.618;10.642;2023-06-24T00:39:24;2.65;;;1.50;;
64063;SDS011;50314;50.618;10.642;2023-06-24T00:41:50;1.65;;;1.40;;
64063;SDS011;50314;50.618;10.642;2023-06-24T00:44:15;1.80;;;1.50;;
64063;SDS011;50314;50.618;10.642;2023-06-24T00:46:41;1.80;;;1.48;;
64063;SDS011;50314;50.618;10.642;2023-06-24T00:49:06;3.15;;;1.75;;
64063;SDS011;50314;50.618;10.642;2023-06-24T00:51:32;1.70;;;1.30;;
64063;SDS011;50314;50.618;10.642;2023-06-24T00:54:01;1.70;;;1.30;;
64063;SDS011;50314;50.618;10.642;2023-06-24T00:56:31;2.00;;;1.40;;
64063;SDS011;50314;50.618;10.642;2023-06-24T00:59:03;1.50;;;1.25;;
64063;SDS011;50314;50.618;10.642;2023-06-24T01:03:58;1.35;;;1.25;;
64063;SDS011;50314;50.618;10.642;2023-06-24T01:06:24;1.50;;;1.40;;
64063;SDS011;50314;50.618;10.642;2023-06-24T01:08:54;1.90;;;1.45;;
64063;SDS011;50314;50.618;10.642;2023-06-24T01:11:21;1.63;;;1.30;;
64063;SDS011;50314;50.618;10.642;2023-06-24T01:13:49;1.58;;;1.48;;
64063;SDS011;50314;50.618;10.642;2023-06-24T01:16:16;1.75;;;1.50;;
64063;SDS011;50314;50.618;10.642;2023-06-24T01:19:01;3.10;;;1.65;;
64063;SDS011;50314;50.618;10.642;2023-06-24T01:30:19;1.73;;;1.40;;
64063;SDS011;50314;50.618;10.642;2023-06-24T01:32:56;2.10;;;1.40;;
64063;SDS011;50314;50.618;10.642;2023-06-24T01:35:34;1.67;;;1.27;;
64063;SDS011;50314;50.618;10.642;2023-06-24T01:38:03;1.65;;;1.52;;
64063;SDS011;50314;50.618;10.642;2023-06-24T01:40:38;1.73;;;1.35;;
64063;SDS011;50314;50.618;10.642;2023-06-24T01:43:08;1.80;;;1.27;;
64063;SDS011;50314;50.618;10.642;2023-06-24T01:45:40;2.03;;;1.50;;
64063;SDS011;50314;50.618;10.642;2023-06-24T01:48:09;2.33;;;1.40;;
64063;SDS011;50314;50.618;10.642;2023-06-24T01:50:42;1.65;;;1.30;;
64063;SDS011;50314;50.618;10.642;2023-06-24T01:53:09;1.55;;;1.30;;
64063;SDS011;50314;50.618;10.642;2023-06-24T01:55:39;2.28;;;1.60;;
64063;SDS011;50314;50.618;10.642;2023-06-24T01:58:07;1.90;;;1.50;;
64063;SDS011;50314;50.618;10.642;2023-06-24T02:00:37;1.55;;;1.38;;
64063;SDS011;50314;50.618;10.642;2023-06-24T02:03:04;2.60;;;1.30;;
64063;SDS011;50314;50.618;10.642;2023-06-24T02:05:31;1.73;;;1.38;;
64063;SDS011;50314;50.618;10.642;2023-06-24T02:07:58;1.65;;;1.55;;
64063;SDS011;50314;50.618;10.642;2023-06-24T02:10:26;1.48;;;1.27;;
64063;SDS011;50314;50.618;10.642;2023-06-24T02:12:53;1.48;;;1.38;;
64063;SDS011;50314;50.618;10.642;2023-06-24T02:15:21;1.40;;;1.30;;
64063;SDS011;50314;50.618;10.642;2023-06-24T02:17:49;1.77;;;1.40;;
64063;SDS011;50314;50.618;10.642;2023-06-24T02:20:16;1.55;;;1.40;;
64063;SDS011;50314;50.618;10.642;2023-06-24T02:22:43;1.50;;;1.30;;
64063;SDS011;50314;50.618;10.642;2023-06-24T02:25:10;1.52;;;1.20;;
64063;SDS011;50314;50.618;10.642;2023-06-24T02:27:36;2.70;;;1.73;;
64063;SDS011;50314;50.618;10.642;2023-06-24T02:30:03;1.70;;;1.58;;
64063;SDS011;50314;50.618;10.642;2023-06-24T02:32:30;1.58;;;1.48;;
64063;SDS011;50314;50.618;10.642;2023-06-24T02:34:56;1.40;;;1.30;;
64063;SDS011;50314;50.618;10.642;2023-06-24T02:37:24;1.50;;;1.20;;
64063;SDS011;50314;50.618;10.642;2023-06-24T02:39:49;1.75;;;1.20;;
64063;SDS011;50314;50.618;10.642;2023-06-24T02:42:15;1.30;;;1.20;;
64063;SDS011;50314;50.618;10.642;2023-06-24T02:44:40;1.77;;;1.38;;
64063;SDS011;50314;50.618;10.642;2023-06-24T02:49:34;1.77;;;1.10;;
64063;SDS011;50314;50.618;10.642;2023-06-24T02:52:01;1.60;;;1.42;;
64063;SDS011;50314;50.618;10.642;2023-06-24T02:54:27;1.55;;;1.40;;
64063;SDS011;50314;50.618;10.642;2023-06-24T02:56:54;1.27;;;1.17;;
64063;SDS011;50314;50.618;10.642;2023-06-24T02:59:23;1.65;;;1.42;;
64063;SDS011;50314;50.618;10.642;2023-06-24T03:01:49;1.67;;;1.58;;
64063;SDS011;50314;50.618;10.642;2023-06-24T03:04:16;1.50;;;1.35;;
64063;SDS011;50314;50.618;10.642;2023-06-24T03:06:43;1.60;;;1.38;;
64063;SDS011;50314;50.618;10.642;2023-06-24T03:09:10;1.10;;;1.00;;
64063;SDS011;50314;50.618;10.642;2023-06-24T03:11:42;1.77;;;1.45;;
64063;SDS011;50314;50.618;10.642;2023-06-24T03:14:09;1.75;;;1.45;;
64063;SDS011;50314;50.618;10.642;2023-06-24T03:16:35;1.23;;;1.13;;
64063;SDS011;50314;50.618;10.642;2023-06-24T03:19:01;1.60;;;1.30;;
64063;SDS011;50314;50.618;10.642;2023-06-24T03:21:26;1.58;;;1.25;;
64063;SDS011;50314;50.618;10.642;2023-06-24T03:23:53;1.40;;;1.25;;
64063;SDS011;50314;50.618;10.642;2023-06-24T03:26:19;1.83;;;1.40;;
64063;SDS011;50314;50.618;10.642;2023-06-24T03:28:45;1.52;;;1.30;;
64063;SDS011;50314;50.618;10.642;2023-06-24T03:31:10;1.38;;;1.27;;
64063;SDS011;50314;50.618;10.642;2023-06-24T03:33:36;1.30;;;1.20;;
64063;SDS011;50314;50.618;10.642;2023-06-24T03:36:02;1.33;;;1.23;;
64063;SDS011;50314;50.618;10.642;2023-06-24T03:38:28;1.75;;;1.25;;
64063;SDS011;50314;50.618;10.642;2023-06-24T03:40:53;1.48;;;1.30;;
64063;SDS011;50314;50.618;10.642;2023-06-24T03:43:19;1.20;;;1.10;;
64063;SDS011;50314;50.618;10.642;2023-06-24T03:45:44;1.40;;;1.17;;
64063;SDS011;50314;50.618;10.642;2023-06-24T03:48:10;1.35;;;1.10;;
64063;SDS011;50314;50.618;10.642;2023-06-24T03:50:36;1.38;;;1.27;;
64063;SDS011;50314;50.618;10.642;2023-06-24T03:53:02;1.40;;;1.30;;
64063;SDS011;50314;50.618;10.642;2023-06-24T03:55:29;1.38;;;1.20;;
64063;SDS011;50314;50.618;10.642;2023-06-24T03:57:54;2.17;;;1.40;;
64063;SDS011;50314;50.618;10.642;2023-06-24T04:00:20;1.67;;;1.50;;
64063;SDS011;50314;50.618;10.642;2023-06-24T04:02:46;1.35;;;1.25;;
64063;SDS011;50314;50.618;10.642;2023-06-24T04:05:12;1.40;;;1.25;;
64063;SDS011;50314;50.618;10.642;2023-06-24T04:07:38;1.15;;;1.05;;
64063;SDS011;50314;50.618;10.642;2023-06-24T04:10:04;1.20;;;1.10;;
64063;SDS011;50314;50.618;10.642;2023-06-24T04:12:34;1.30;;;1.20;;
64063;SDS011;50314;50.618;10.642;2023-06-24T04:15:00;1.23;;;1.13;;
64063;SDS011;50314;50.618;10.642;2023-06-24T04:17:28;1.20;;;1.10;;
64063;SDS011;50314;50.618;10.642;2023-06-24T04:19:54;1.40;;;1.15;;
64063;SDS011;50314;50.618;10.642;2023-06-24T04:22:19;1.42;;;1.33;;
64063;SDS011;50314;50.618;10.642;2023-06-24T04:24:44;1.15;;;1.05;;
64063;SDS011;50314;50.618;10.642;2023-06-24T04:27:10;1.10;;;1.00;;
64063;SDS011;50314;50.618;10.642;2023-06-24T04:29:35;1.30;;;1.10;;
64063;SDS011;50314;50.618;10.642;2023-06-24T04:32:01;1.20;;;1.10;;
64063;SDS011;50314;50.618;10.642;2023-06-24T04:34:26;1.20;;;1.10;;
64063;SDS011;50314;50.618;10.642;2023-06-24T04:36:52;1.27;;;1.17;;
64063;SDS011;50314;50.618;10.642;2023-06-24T04:39:17;0.93;;;0.90;;
64063;SDS011;50314;50.618;10.642;2023-06-24T04:41:43;1.13;;;1.02;;
64063;SDS011;50314;50.618;10.642;2023-06-24T04:44:08;1.10;;;0.98;;
64063;SDS011;50314;50.618;10.642;2023-06-24T04:46:34;1.02;;;1.00;;
64063;SDS011;50314;50.618;10.642;2023-06-24T04:48:59;1.00;;;1.00;;
64063;SDS011;50314;50.618;10.642;2023-06-24T04:51:25;1.50;;;1.10;;
64063;SDS011;50314;50.618;10.642;2023-06-24T04:53:50;1.15;;;0.90;;
64063;SDS011;50314;50.618;10.642;2023-06-24T04:56:16;1.17;;;1.08;;
64063;SDS011;50314;50.618;10.642;2023-06-24T04:58:41;1.13;;;1.02;;
64063;SDS011;50314;50.618;10.642;2023-06-24T05:01:06;1.13;;;1.02;;
64063;SDS011;50314;50.618;10.642;2023-06-24T05:03:32;1.40;;;1.30;;
64063;SDS011;50314;50.618;10.642;2023-06-24T05:05:57;1.27;;;1.17;;
64063;SDS011;50314;50.618;10.642;2023-06-24T05:08:23;1.30;;;1.20;;
64063;SDS011;50314;50.618;10.642;2023-06-24T05:10:49;1.23;;;1.13;;
64063;SDS011;50314;50.618;10.642;2023-06-24T05:13:14;1.23;;;0.98;;
64063;SDS011;50314;50.618;10.642;2023-06-24T05:15:40;1.48;;;1.33;;
64063;SDS011;50314;50.618;10.642;2023-06-24T05:18:05;1.80;;;1.27;;
64063;SDS011;50314;50.618;10.642;2023-06-24T05:20:31;2.15;;;1.38;;
64063;SDS011;50314;50.618;10.642;2023-06-24T05:22:56;3.40;;;1.50;;
64063;SDS011;50314;50.618;10.642;2023-06-24T05:25:22;1.45;;;1.30;;
64063;SDS011;50314;50.618;10.642;2023-06-24T05:27:47;2.58;;;1.23;;
64063;SDS011;50314;50.618;10.642;2023-06-24T05:30:13;1.30;;;1.17;;
64063;SDS011;50314;50.618;10.642;2023-06-24T05:32:39;1.25;;;0.90;;
64063;SDS011;50314;50.618;10.642;2023-06-24T05:35:04;0.88;;;0.88;;
64063;SDS011;50314;50.618;10.642;2023-06-24T05:37:30;1.27;;;1.05;;
64063;SDS011;50314;50.618;10.642;2023-06-24T05:39:56;1.30;;;1.15;;
64063;SDS011;50314;50.618;10.642;2023-06-24T05:42:22;1.40;;;1.20;;
64063;SDS011;50314;50.618;10.642;2023-06-24T05:44:48;1.13;;;1.02;;
64063;SDS011;50314;50.618;10.642;2023-06-24T05:47:13;1.15;;;1.02;;
64063;SDS011;50314;50.618;10.642;2023-06-24T05:49:39;1.35;;;1.08;;
64063;SDS011;50314;50.618;10.642;2023-06-24T05:52:05;1.75;;;1.20;;
64063;SDS011;50314;50.618;10.642;2023-06-24T05:54:30;1.55;;;1.20;;
64063;SDS011;50314;50.618;10.642;2023-06-24T05:56:56;1.55;;;1.40;;
64063;SDS011;50314;50.618;10.642;2023-06-24T05:59:21;2.50;;;1.02;;
64063;SDS011;50314;50.618;10.642;2023-06-24T06:01:47;3.20;;;1.30;;
64063;SDS011;50314;50.618;10.642;2023-06-24T06:04:12;1.83;;;1.45;;
64063;SDS011;50314;50.618;10.642;2023-06-24T06:06:38;1.23;;;1.08;;
64063;SDS011;50314;50.618;10.642;2023-06-24T06:09:04;0.98;;;0.90;;
64063;SDS011;50314;50.618;10.642;2023-06-24T06:11:31;1.20;;;1.10;;
64063;SDS011;50314;50.618;10.642;2023-06-24T06:13:56;2.17;;;1.20;;
64063;SDS011;50314;50.618;10.642;2023-06-24T06:16:21;1.30;;;1.17;;
64063;SDS011;50314;50.618;10.642;2023-06-24T06:18:47;1.23;;;1.10;;
64063;SDS011;50314;50.618;10.642;2023-06-24T06:21:12;1.10;;;0.98;;
64063;SDS011;50314;50.618;10.642;2023-06-24T06:23:38;3.20;;;1.10;;
64063;SDS011;50314;50.618;10.642;2023-06-24T06:26:03;1.30;;;1.20;;
64063;SDS011;50314;50.618;10.642;2023-06-24T06:28:29;1.20;;;0.95;;
64063;SDS011;50314;50.618;10.642;2023-06-24T06:30:54;1.92;;;1.40;;
64063;SDS011;50314;50.618;10.642;2023-06-24T06:33:22;1.80;;;1.58;;
64063;SDS011;50314;50.618;10.642;2023-06-24T06:35:47;3.58;;;1.80;;
64063;SDS011;50314;50.618;10.642;2023-06-24T06:38:13;2.65;;;1.42;;
64063;SDS011;50314;50.618;10.642;2023-06-24T06:40:39;2.03;;;1.38;;
64063;SDS011;50314;50.618;10.642;2023-06-24T06:43:05;1.63;;;1.30;;
64063;SDS011;50314;50.618;10.642;2023-06-24T06:45:30;1.38;;;1.27;;
64063;SDS011;50314;50.618;10.642;2023-06-24T06:47:56;1.17;;;0.98;;
64063;SDS011;50314;50.618;10.642;2023-06-24T06:50:21;1.27;;;1.17;;
64063;SDS011;50314;50.618;10.642;2023-06-24T06:52:47;3.13;;;1.42;;
64063;SDS011;50314;50.618;10.642;2023-06-24T06:55:12;2.55;;;1.20;;
64063;SDS011;50314;50.618;10.642;2023-06-24T06:57:38;3.38;;;1.45;;
64063;SDS011;50314;50.618;10.642;2023-06-24T07:00:03;2.28;;;1.50;;
64063;SDS011;50314;50.618;10.642;2023-06-24T07:02:29;1.77;;;1.30;;
64063;SDS011;50314;50.618;10.642;2023-06-24T07:04:54;1.17;;;1.05;;
64063;SDS011;50314;50.618;10.642;2023-06-24T07:07:21;1.70;;;1.13;;
64063;SDS011;50314;50.618;10.642;2023-06-24T07:09:47;1.98;;;1.40;;
64063;SDS011;50314;50.618;10.642;2023-06-24T07:12:13;1.98;;;1.13;;
64063;SDS011;50314;50.618;10.642;2023-06-24T07:14:38;2.40;;;1.35;;
64063;SDS011;50314;50.618;10.642;2023-06-24T07:17:04;1.90;;;1.50;;
64063;SDS011;50314;50.618;10.642;2023-06-24T07:19:30;3.00;;;1.50;;
64063;SDS011;50314;50.618;10.642;2023-06-24T07:21:55;1.70;;;1.30;;
64063;SDS011;50314;50.618;10.642;2023-06-24T07:24:21;1.73;;;1.17;;
64063;SDS011;50314;50.618;10.642;2023-06-24T07:26:46;1.67;;;1.30;;
64063;SDS011;50314;50.618;10.642;2023-06-24T07:29:12;1.48;;;1.20;;
64063;SDS011;50314;50.618;10.642;2023-06-24T07:31:37;2.30;;;1.40;;
64063;SDS011;50314;50.618;10.642;2023-06-24T07:34:03;2.15;;;1.50;;
64063;SDS011;50314;50.618;10.642;2023-06-24T07:36:28;1.88;;;1.50;;
64063;SDS011;50314;50.618;10.642;2023-06-24T07:38:54;2.15;;;1.60;;
64063;SDS011;50314;50.618;10.642;2023-06-24T07:41:19;2.30;;;1.40;;
64063;SDS011;50314;50.618;10.642;2023-06-24T07:43:45;1.60;;;1.33;;
64063;SDS011;50314;50.618;10.642;2023-06-24T07:46:10;1.33;;;1.20;;
64063;SDS011;50314;50.618;10.642;2023-06-24T07:48:36;2.47;;;1.50;;
64063;SDS011;50314;50.618;10.642;2023-06-24T07:51:01;2.38;;;1.45;;
64063;SDS011;50314;50.618;10.642;2023-06-24T07:53:27;1.40;;;1.30;;
64063;SDS011;50314;50.618;10.642;2023-06-24T07:55:52;1.55;;;1.38;;
64063;SDS011;50314;50.618;10.642;2023-06-24T07:58:18;1.25;;;1.05;;
64063;SDS011;50314;50.618;10.642;2023-06-24T08:00:44;1.52;;;1.38;;
64063;SDS011;50314;50.618;10.642;2023-06-24T08:03:10;1.77;;;1.40;;
64063;SDS011;50314;50.618;10.642;2023-06-24T08:05:36;2.63;;;1.45;;
64063;SDS011;50314;50.618;10.642;2023-06-24T08:08:04;1.85;;;1.45;;
64063;SDS011;50314;50.618;10.642;2023-06-24T08:10:30;1.48;;;1.30;;
64063;SDS011;50314;50.618;10.642;2023-06-24T08:12:55;1.27;;;1.17;;
64063;SDS011;50314;50.618;10.642;2023-06-24T08:15:21;2.63;;;1.85;;
64063;SDS011;50314;50.618;10.642;2023-06-24T08:17:50;3.75;;;2.58;;
64063;SDS011;50314;50.618;10.642;2023-06-24T08:20:22;4.97;;;2.97;;
64063;SDS011;50314;50.618;10.642;2023-06-24T08:22:48;4.75;;;2.85;;
64063;SDS011;50314;50.618;10.642;2023-06-24T08:25:14;4.20;;;3.05;;
64063;SDS011;50314;50.618;10.642;2023-06-24T08:27:39;5.22;;;3.03;;
64063;SDS011;50314;50.618;10.642;2023-06-24T08:30:05;3.70;;;2.83;;
64063;SDS011;50314;50.618;10.642;2023-06-24T08:32:31;4.82;;;3.35;;
64063;SDS011;50314;50.618;10.642;2023-06-24T08:34:57;6.70;;;3.88;;
64063;SDS011;50314;50.618;10.642;2023-06-24T08:37:22;7.22;;;3.25;;
64063;SDS011;50314;50.618;10.642;2023-06-24T08:39:48;6.10;;;2.85;;
64063;SDS011;50314;50.618;10.642;2023-06-24T08:42:13;3.95;;;2.97;;
64063;SDS011;50314;50.618;10.642;2023-06-24T08:44:39;4.90;;;2.60;;
64063;SDS011;50314;50.618;10.642;2023-06-24T08:47:04;5.05;;;3.00;;
64063;SDS011;50314;50.618;10.642;2023-06-24T08:49:30;5.13;;;2.75;;
64063;SDS011;50314;50.618;10.642;2023-06-24T08:54:21;3.30;;;2.58;;
64063;SDS011;50314;50.618;10.642;2023-06-24T08:56:47;6.05;;;2.88;;
64063;SDS011;50314;50.618;10.642;2023-06-24T08:59:13;5.30;;;2.80;;
64063;SDS011;50314;50.618;10.642;2023-06-24T09:01:44;3.33;;;2.60;;
64063;SDS011;50314;50.618;10.642;2023-06-24T09:04:11;4.10;;;2.80;;
64063;SDS011;50314;50.618;10.642;2023-06-24T09:06:36;3.72;;;2.53;;
64063;SDS011;50314;50.618;10.642;2023-06-24T09:09:01;4.18;;;2.80;;
64063;SDS011;50314;50.618;10.642;2023-06-24T09:11:27;4.22;;;2.78;;
64063;SDS011;50314;50.618;10.642;2023-06-24T09:13:57;4.20;;;2.47;;
64063;SDS011;50314;50.618;10.642;2023-06-24T09:16:23;4.40;;;2.95;;
64063;SDS011;50314;50.618;10.642;2023-06-24T09:18:50;4.80;;;3.15;;
64063;SDS011;50314;50.618;10.642;2023-06-24T09:21:22;5.15;;;2.78;;
64063;SDS011;50314;50.618;10.642;2023-06-24T09:23:56;3.65;;;2.63;;
64063;SDS011;50314;50.618;10.642;2023-06-24T09:26:25;4.95;;;2.90;;
64063;SDS011;50314;50.618;10.642;2023-06-24T09:28:52;3.63;;;2.35;;
64063;SDS011;50314;50.618;10.642;2023-06-24T09:31:19;4.80;;;2.70;;
64063;SDS011;50314;50.618;10.642;2023-06-24T09:33:45;3.45;;;2.50;;
64063;SDS011;50314;50.618;10.642;2023-06-24T09:36:12;4.18;;;2.40;;
64063;SDS011;50314;50.618;10.642;2023-06-24T09:38:38;3.38;;;2.70;;
64063;SDS011;50314;50.618;10.642;2023-06-24T09:41:06;4.28;;;2.70;;
64063;SDS011;50314;50.618;10.642;2023-06-24T09:43:34;5.13;;;2.70;;
64063;SDS011;50314;50.618;10.642;2023-06-24T09:46:07;4.75;;;2.67;;
64063;SDS011;50314;50.618;10.642;2023-06-24T09:48:33;4.85;;;2.50;;
64063;SDS011;50314;50.618;10.642;2023-06-24T09:53:27;2.58;;;2.20;;
64063;SDS011;50314;50.618;10.642;2023-06-24T09:55:55;4.13;;;2.75;;
64063;SDS011;50314;50.618;10.642;2023-06-24T09:58:22;4.43;;;2.47;;
64063;SDS011;50314;50.618;10.642;2023-06-24T10:00:49;3.78;;;2.47;;
64063;SDS011;50314;50.618;10.642;2023-06-24T10:03:15;3.55;;;2.53;;
64063;SDS011;50314;50.618;10.642;2023-06-24T10:08:08;2.85;;;2.20;;
64063;SDS011;50314;50.618;10.642;2023-06-24T10:10:35;3.60;;;2.70;;
64063;SDS011;50314;50.618;10.642;2023-06-24T10:13:00;4.22;;;2.60;;
64063;SDS011;50314;50.618;10.642;2023-06-24T10:15:26;3.75;;;2.50;;
64063;SDS011;50314;50.618;10.642;2023-06-24T10:17:52;8.48;;;4.95;;
64063;SDS011;50314;50.618;10.642;2023-06-24T10:20:24;11.60;;;5.80;;
64063;SDS011;50314;50.618;10.642;2023-06-24T10:22:52;11.98;;;5.97;;
64063;SDS011;50314;50.618;10.642;2023-06-24T10:25:18;8.82;;;5.28;;
64063;SDS011;50314;50.618;10.642;2023-06-24T10:27:44;7.68;;;4.38;;
64063;SDS011;50314;50.618;10.642;2023-06-24T10:30:19;6.78;;;3.80;;
64063;SDS011;50314;50.618;10.642;2023-06-24T10:32:51;6.50;;;3.70;;
64063;SDS011;50314;50.618;10.642;2023-06-24T10:35:23;6.00;;;3.20;;
64063;SDS011;50314;50.618;10.642;2023-06-24T10:37:54;5.40;;;3.22;;
64063;SDS011;50314;50.618;10.642;2023-06-24T10:45:53;4.70;;;3.42;;
64063;SDS011;50314;50.618;10.642;2023-06-24T10:48:20;4.80;;;3.80;;
64063;SDS011;50314;50.618;10.642;2023-06-24T10:50:46;4.28;;;3.22;;
64063;SDS011;50314;50.618;10.642;2023-06-24T10:53:12;5.28;;;3.58;;
64063;SDS011;50314;50.618;10.642;2023-06-24T10:55:39;5.38;;;3.70;;
64063;SDS011;50314;50.618;10.642;2023-06-24T10:58:11;5.88;;;4.03;;
64063;SDS011;50314;50.618;10.642;2023-06-24T11:00:39;4.38;;;3.33;;
64063;SDS011;50314;50.618;10.642;2023-06-24T11:03:09;4.95;;;3.30;;
64063;SDS011;50314;50.618;10.642;2023-06-24T11:05:36;4.28;;;3.05;;
64063;SDS011;50314;50.618;10.642;2023-06-24T11:08:04;5.50;;;3.08;;
64063;SDS011;50314;50.618;10.642;2023-06-24T11:10:30;4.32;;;3.20;;
64063;SDS011;50314;50.618;10.642;2023-06-24T11:12:56;3.70;;;3.28;;
64063;SDS011;50314;50.618;10.642;2023-06-24T11:15:23;4.82;;;2.90;;
64063;SDS011;50314;50.618;10.642;2023-06-24T11:17:50;3.88;;;3.15;;
64063;SDS011;50314;50.618;10.642;2023-06-24T11:20:17;4.38;;;2.83;;
64063;SDS011;50314;50.618;10.642;2023-06-24T11:22:43;4.00;;;3.20;;
64063;SDS011;50314;50.618;10.642;2023-06-24T11:28:00;3.58;;;2.80;;
64063;SDS011;50314;50.618;10.642;2023-06-24T11:30:26;2.88;;;2.55;;
64063;SDS011;50314;50.618;10.642;2023-06-24T11:32:51;4.40;;;2.78;;
64063;SDS011;50314;50.618;10.642;2023-06-24T11:35:16;3.78;;;2.58;;
64063;SDS011;50314;50.618;10.642;2023-06-24T11:37:43;3.25;;;2.38;;
64063;SDS011;50314;50.618;10.642;2023-06-24T11:40:10;3.45;;;2.42;;
64063;SDS011;50314;50.618;10.642;2023-06-24T11:42:38;3.80;;;2.53;;
64063;SDS011;50314;50.618;10.642;2023-06-24T11:45:06;3.67;;;2.65;;
64063;SDS011;50314;50.618;10.642;2023-06-24T11:47:34;3.28;;;2.47;;
64063;SDS011;50314;50.618;10.642;2023-06-24T11:50:01;3.03;;;2.60;;
64063;SDS011;50314;50.618;10.642;2023-06-24T11:52:38;3.60;;;2.67;;
64063;SDS011;50314;50.618;10.642;2023-06-24T11:55:11;2.78;;;2.50;;
64063;SDS011;50314;50.618;10.642;2023-06-24T12:00:22;4.15;;;3.15;;
64063;SDS011;50314;50.618;10.642;2023-06-24T12:02:53;3.28;;;2.63;;
64063;SDS011;50314;50.618;10.642;2023-06-24T12:05:21;5.30;;;2.90;;
64063;SDS011;50314;50.618;10.642;2023-06-24T12:10:31;3.22;;;2.60;;
64063;SDS011;50314;50.618;10.642;2023-06-24T12:12:58;4.40;;;2.95;;
64063;SDS011;50314;50.618;10.642;2023-06-24T12:15:25;5.55;;;2.97;;
64063;SDS011;50314;50.618;10.642;2023-06-24T12:17:51;6.15;;;3.42;;
64063;SDS011;50314;50.618;10.642;2023-06-24T12:20:17;3.53;;;2.72;;
64063;SDS011;50314;50.618;10.642;2023-06-24T12:22:44;4.10;;;2.70;;
64063;SDS011;50314;50.618;10.642;2023-06-24T12:25:10;2.85;;;2.30;;
64063;SDS011;50314;50.618;10.642;2023-06-24T12:27:36;3.10;;;2.50;;
64063;SDS011;50314;50.618;10.642;2023-06-24T12:30:02;4.95;;;2.70;;
64063;SDS011;50314;50.618;10.642;2023-06-24T12:32:28;3.25;;;2.60;;
64063;SDS011;50314;50.618;10.642;2023-06-24T12:34:53;3.17;;;2.58;;
64063;SDS011;50314;50.618;10.642;2023-06-24T12:37:19;3.28;;;2.58;;
64063;SDS011;50314;50.618;10.642;2023-06-24T12:39:44;3.92;;;3.05;;
64063;SDS011;50314;50.618;10.642;2023-06-24T12:42:10;2.78;;;2.22;;
64063;SDS011;50314;50.618;10.642;2023-06-24T12:44:36;3.33;;;2.78;;
64063;SDS011;50314;50.618;10.642;2023-06-24T12:47:01;5.28;;;2.63;;
64063;SDS011;50314;50.618;10.642;2023-06-24T12:49:27;4.82;;;2.50;;
64063;SDS011;50314;50.618;10.642;2023-06-24T12:51:53;48.58;;;7.45;;
64063;SDS011;50314;50.618;10.642;2023-06-24T12:54:18;16.02;;;4.53;;
64063;SDS011;50314;50.618;10.642;2023-06-24T12:56:44;6.28;;;3.10;;
64063;SDS011;50314;50.618;10.642;2023-06-24T12:59:09;9.48;;;3.03;;
64063;SDS011;50314;50.618;10.642;2023-06-24T13:01:34;6.25;;;2.80;;
64063;SDS011;50314;50.618;10.642;2023-06-24T13:04:00;3.90;;;2.90;;
64063;SDS011;50314;50.618;10.642;2023-06-24T13:06:25;6.22;;;3.20;;
64063;SDS011;50314;50.618;10.642;2023-06-24T13:08:51;5.70;;;3.00;;
64063;SDS011;50314;50.618;10.642;2023-06-24T13:11:17;4.72;;;2.72;;
64063;SDS011;50314;50.618;10.642;2023-06-24T13:13:42;3.72;;;2.45;;
64063;SDS011;50314;50.618;10.642;2023-06-24T13:16:07;4.32;;;2.70;;
64063;SDS011;50314;50.618;10.642;2023-06-24T13:18:33;5.75;;;2.75;;
64063;SDS011;50314;50.618;10.642;2023-06-24T13:20:59;3.88;;;2.40;;
64063;SDS011;50314;50.618;10.642;2023-06-24T13:23:24;4.15;;;2.50;;
64063;SDS011;50314;50.618;10.642;2023-06-24T13:25:50;3.72;;;2.47;;
64063;SDS011;50314;50.618;10.642;2023-06-24T13:28:15;4.13;;;2.30;;
64063;SDS011;50314;50.618;10.642;2023-06-24T13:30:40;3.50;;;2.75;;
64063;SDS011;50314;50.618;10.642;2023-06-24T13:33:06;2.85;;;2.30;;
64063;SDS011;50314;50.618;10.642;2023-06-24T13:35:32;4.50;;;2.40;;
64063;SDS011;50314;50.618;10.642;2023-06-24T13:37:58;3.40;;;2.75;;
64063;SDS011;50314;50.618;10.642;2023-06-24T13:40:23;2.50;;;2.17;;
64063;SDS011;50314;50.618;10.642;2023-06-24T13:42:49;3.45;;;2.20;;
64063;SDS011;50314;50.618;10.642;2023-06-24T13:45:15;3.08;;;2.30;;
64063;SDS011;50314;50.618;10.642;2023-06-24T13:47:41;3.25;;;2.20;;
64063;SDS011;50314;50.618;10.642;2023-06-24T13:50:06;4.55;;;2.50;;
64063;SDS011;50314;50.618;10.642;2023-06-24T13:52:32;3.45;;;2.45;;
64063;SDS011;50314;50.618;10.642;2023-06-24T13:54:58;3.00;;;2.50;;
64063;SDS011;50314;50.618;10.642;2023-06-24T13:57:23;3.80;;;2.50;;
64063;SDS011;50314;50.618;10.642;2023-06-24T13:59:49;3.88;;;2.35;;
64063;SDS011;50314;50.618;10.642;2023-06-24T14:02:14;3.50;;;2.40;;
64063;SDS011;50314;50.618;10.642;2023-06-24T14:04:40;4.00;;;2.17;;
64063;SDS011;50314;50.618;10.642;2023-06-24T14:07:06;4.32;;;2.70;;
64063;SDS011;50314;50.618;10.642;2023-06-24T14:09:31;3.22;;;2.30;;
64063;SDS011;50314;50.618;10.642;2023-06-24T14:11:57;4.43;;;2.63;;
64063;SDS011;50314;50.618;10.642;2023-06-24T14:14:23;3.85;;;2.80;;
64063;SDS011;50314;50.618;10.642;2023-06-24T14:16:48;3.75;;;2.60;;
64063;SDS011;50314;50.618;10.642;2023-06-24T14:19:14;3.45;;;2.50;;
64063;SDS011;50314;50.618;10.642;2023-06-24T14:21:39;5.22;;;2.25;;
64063;SDS011;50314;50.618;10.642;2023-06-24T14:24:05;9.45;;;3.28;;
64063;SDS011;50314;50.618;10.642;2023-06-24T14:26:33;5.18;;;2.33;;
64063;SDS011;50314;50.618;10.642;2023-06-24T14:28:58;4.30;;;2.85;;
64063;SDS011;50314;50.618;10.642;2023-06-24T14:31:26;3.47;;;2.53;;
64063;SDS011;50314;50.618;10.642;2023-06-24T14:33:51;2.95;;;2.45;;
64063;SDS011;50314;50.618;10.642;2023-06-24T14:36:17;4.60;;;2.95;;
64063;SDS011;50314;50.618;10.642;2023-06-24T14:38:42;3.95;;;2.70;;
64063;SDS011;50314;50.618;10.642;2023-06-24T14:41:09;3.13;;;2.65;;
64063;SDS011;50314;50.618;10.642;2023-06-24T14:43:35;3.83;;;2.53;;
64063;SDS011;50314;50.618;10.642;2023-06-24T14:46:00;5.40;;;2.55;;
64063;SDS011;50314;50.618;10.642;2023-06-24T14:48:26;3.50;;;2.55;;
64063;SDS011;50314;50.618;10.642;2023-06-24T14:50:51;3.42;;;2.58;;
64063;SDS011;50314;50.618;10.642;2023-06-24T14:53:17;3.53;;;2.60;;
64063;SDS011;50314;50.618;10.642;2023-06-24T14:55:42;3.30;;;2.58;;
64063;SDS011;50314;50.618;10.642;2023-06-24T14:58:08;3.97;;;2.65;;
64063;SDS011;50314;50.618;10.642;2023-06-24T15:00:33;3.60;;;2.67;;
64063;SDS011;50314;50.618;10.642;2023-06-24T15:02:59;3.38;;;2.53;;